sensor_id;sensor_type;location;lat;lon;timestamp;pressure;altitude;pressure_sealevel;temperature;humidity
77106;BME280;66057;54.718;18.426;2023-06-22T00:00:48;101375.81;;;18.49;100.00
77106;BME280;66057;54.718;18.426;2023-06-22T00:03:30;101386.09;;;18.43;100.00
77106;BME280;66057;54.718;18.426;2023-06-22T00:05:55;101388.66;;;18.40;100.00
77106;BME280;66057;54.718;18.426;2023-06-22T00:08:22;101391.22;;;18.38;100.00
77106;BME280;66057;54.718;18.426;2023-06-22T00:10:47;101385.09;;;18.35;100.00
77106;BME280;66057;54.718;18.426;2023-06-22T00:13:14;101383.41;;;18.37;100.00
77106;BME280;66057;54.718;18.426;2023-06-22T00:15:40;101383.41;;;18.37;100.00
77106;BME280;66057;54.718;18.426;2023-06-22T00:18:08;101385.09;;;18.35;100.00
77106;BME280;66057;54.718;18.426;2023-06-22T00:20:35;101391.00;;;18.27;100.00
77106;BME280;66057;54.718;18.426;2023-06-22T00:23:06;101401.28;;;18.20;100.00
77106;BME280;66057;54.718;18.426;2023-06-22T00:25:35;101403.06;;;18.22;100.00
77106;BME280;66057;54.718;18.426;2023-06-22T00:28:02;101409.00;;;18.15;100.00
77106;BME280;66057;54.718;18.426;2023-06-22T00:30:27;101412.31;;;18.08;100.00
77106;BME280;66057;54.718;18.426;2023-06-22T00:32:53;101414.84;;;18.05;100.00
77106;BME280;66057;54.718;18.426;2023-06-22T00:35:19;101411.38;;;18.05;100.00
77106;BME280;66057;54.718;18.426;2023-06-22T00:37:45;101406.16;;;18.05;100.00
77106;BME280;66057;54.718;18.426;2023-06-22T00:40:10;101404.50;;;18.07;100.00
77106;BME280;66057;54.718;18.426;2023-06-22T00:42:38;101417.50;;;18.08;100.00
77106;BME280;66057;54.718;18.426;2023-06-22T00:45:05;101411.47;;;18.08;100.00
77106;BME280;66057;54.718;18.426;2023-06-22T00:47:31;101407.06;;;18.05;100.00
77106;BME280;66057;54.718;18.426;2023-06-22T00:49:58;101418.19;;;18.00;100.00
77106;BME280;66057;54.718;18.426;2023-06-22T00:52:24;101419.16;;;18.03;100.00
77106;BME280;66057;54.718;18.426;2023-06-22T00:54:56;101419.16;;;18.03;100.00
77106;BME280;66057;54.718;18.426;2023-06-22T00:57:24;101418.19;;;18.00;100.00
77106;BME280;66057;54.718;18.426;2023-06-22T00:59:54;101411.22;;;17.97;100.00
77106;BME280;66057;54.718;18.426;2023-06-22T01:02:20;101416.25;;;17.90;100.00
77106;BME280;66057;54.718;18.426;2023-06-22T01:04:46;101426.53;;;17.83;100.00
77106;BME280;66057;54.718;18.426;2023-06-22T01:07:38;101421.28;;;17.82;100.00
77106;BME280;66057;54.718;18.426;2023-06-22T01:18:30;101418.41;;;17.70;100.00
77106;BME280;66057;54.718;18.426;2023-06-22T01:20:56;101420.94;;;17.67;100.00
77106;BME280;66057;54.718;18.426;2023-06-22T01:23:33;101420.13;;;17.68;100.00
77106;BME280;66057;54.718;18.426;2023-06-22T01:26:28;101419.91;;;17.59;100.00
77106;BME280;66057;54.718;18.426;2023-06-22T01:28:55;101421.72;;;17.63;100.00
77106;BME280;66057;54.718;18.426;2023-06-22T01:31:25;101424.88;;;17.51;100.00
77106;BME280;66057;54.718;18.426;2023-06-22T01:33:57;101424.81;;;17.48;100.00
77106;BME280;66057;54.718;18.426;2023-06-22T01:36:24;101422.16;;;17.45;100.00
77106;BME280;66057;54.718;18.426;2023-06-22T01:38:52;101427.31;;;17.43;100.00
77106;BME280;66057;54.718;18.426;2023-06-22T01:41:19;101420.31;;;17.41;100.00
77106;BME280;66057;54.718;18.426;2023-06-22T01:43:46;101411.56;;;17.36;100.00
77106;BME280;66057;54.718;18.426;2023-06-22T01:46:13;101425.28;;;17.32;100.00
77106;BME280;66057;54.718;18.426;2023-06-22T01:48:40;101417.38;;;17.26;100.00
77106;BME280;66057;54.718;18.426;2023-06-22T01:51:06;101428.66;;;17.26;100.00
77106;BME280;66057;54.718;18.426;2023-06-22T01:53:32;101428.50;;;17.20;100.00
77106;BME280;66057;54.718;18.426;2023-06-22T01:55:58;101429.44;;;17.24;100.00
77106;BME280;66057;54.718;18.426;2023-06-22T01:58:28;101421.53;;;17.19;100.00
77106;BME280;66057;54.718;18.426;2023-06-22T02:01:10;101436.19;;;17.17;100.00
77106;BME280;66057;54.718;18.426;2023-06-22T02:03:48;101438.66;;;17.13;100.00
77106;BME280;66057;54.718;18.426;2023-06-22T02:06:17;101437.78;;;17.12;100.00
77106;BME280;66057;54.718;18.426;2023-06-22T02:08:53;101429.03;;;17.07;100.00
77106;BME280;66057;54.718;18.426;2023-06-22T02:11:21;101432.56;;;17.11;100.00
77106;BME280;66057;54.718;18.426;2023-06-22T02:13:47;101430.69;;;17.05;100.00
77106;BME280;66057;54.718;18.426;2023-06-22T02:16:14;101435.84;;;17.04;100.00
77106;BME280;66057;54.718;18.426;2023-06-22T02:18:48;101447.13;;;17.04;100.00
77106;BME280;66057;54.718;18.426;2023-06-22T02:21:20;101445.41;;;17.05;100.00
77106;BME280;66057;54.718;18.426;2023-06-22T02:23:47;101446.34;;;17.08;100.00
77106;BME280;66057;54.718;18.426;2023-06-22T02:26:13;101451.53;;;17.08;100.00
77106;BME280;66057;54.718;18.426;2023-06-22T02:28:39;101454.16;;;17.08;100.00
77106;BME280;66057;54.718;18.426;2023-06-22T02:31:05;101457.63;;;17.09;100.00
77106;BME280;66057;54.718;18.426;2023-06-22T02:33:30;101454.13;;;17.07;100.00
77106;BME280;66057;54.718;18.426;2023-06-22T02:35:57;101462.03;;;17.11;100.00
77106;BME280;66057;54.718;18.426;2023-06-22T02:38:22;101464.75;;;17.17;100.00
77106;BME280;66057;54.718;18.426;2023-06-22T02:40:50;101476.16;;;17.22;100.00
77106;BME280;66057;54.718;18.426;2023-06-22T02:43:16;101478.91;;;17.28;100.00
77106;BME280;66057;54.718;18.426;2023-06-22T02:45:42;101479.06;;;17.34;100.00
77106;BME280;66057;54.718;18.426;2023-06-22T02:48:08;101477.44;;;17.38;100.00
77106;BME280;66057;54.718;18.426;2023-06-22T02:50:33;101488.75;;;17.41;100.00
77106;BME280;66057;54.718;18.426;2023-06-22T02:52:59;101496.56;;;17.41;100.00
77106;BME280;66057;54.718;18.426;2023-06-22T02:55:25;101501.94;;;17.48;100.00
77106;BME280;66057;54.718;18.426;2023-06-22T02:57:50;101504.78;;;17.58;100.00
77106;BME280;66057;54.718;18.426;2023-06-22T03:00:19;101502.19;;;17.58;100.00
77106;BME280;66057;54.718;18.426;2023-06-22T03:02:46;101502.41;;;17.66;100.00
77106;BME280;66057;54.718;18.426;2023-06-22T03:05:13;101505.88;;;17.65;100.00
77106;BME280;66057;54.718;18.426;2023-06-22T03:07:43;101497.25;;;17.67;100.00
77106;BME280;66057;54.718;18.426;2023-06-22T03:10:12;101493.09;;;17.74;100.00
77106;BME280;66057;54.718;18.426;2023-06-22T03:12:39;101496.69;;;17.80;100.00
77106;BME280;66057;54.718;18.426;2023-06-22T03:15:07;101505.47;;;17.84;100.00
77106;BME280;66057;54.718;18.426;2023-06-22T03:17:34;101506.41;;;17.88;100.00
77106;BME280;66057;54.718;18.426;2023-06-22T03:20:01;101502.91;;;17.87;100.00
77106;BME280;66057;54.718;18.426;2023-06-22T03:22:27;101516.97;;;17.95;100.00
77106;BME280;66057;54.718;18.426;2023-06-22T03:24:53;101509.97;;;17.93;100.00
77106;BME280;66057;54.718;18.426;2023-06-22T03:27:18;101512.59;;;17.94;100.00
77106;BME280;66057;54.718;18.426;2023-06-22T03:29:45;101519.72;;;18.01;100.00
77106;BME280;66057;54.718;18.426;2023-06-22T03:32:12;101518.97;;;18.07;100.00
77106;BME280;66057;54.718;18.426;2023-06-22T03:34:38;101524.19;;;18.07;100.00
77106;BME280;66057;54.718;18.426;2023-06-22T03:37:04;101529.34;;;18.05;100.00
77106;BME280;66057;54.718;18.426;2023-06-22T03:39:31;101536.25;;;18.05;100.00
77106;BME280;66057;54.718;18.426;2023-06-22T03:41:57;101535.53;;;18.10;100.00
77106;BME280;66057;54.718;18.426;2023-06-22T03:44:22;101531.31;;;18.15;100.00
77106;BME280;66057;54.718;18.426;2023-06-22T03:46:48;101551.41;;;18.22;100.00
77106;BME280;66057;54.718;18.426;2023-06-22T03:49:14;101546.28;;;18.25;100.00
77106;BME280;66057;54.718;18.426;2023-06-22T03:51:40;101556.59;;;18.21;100.00
77106;BME280;66057;54.718;18.426;2023-06-22T03:54:05;101560.00;;;18.18;100.00
77106;BME280;66057;54.718;18.426;2023-06-22T03:56:31;101552.13;;;18.15;100.00
77106;BME280;66057;54.718;18.426;2023-06-22T03:58:57;101557.28;;;18.14;100.00
77106;BME280;66057;54.718;18.426;2023-06-22T04:01:23;101551.28;;;18.16;100.00
77106;BME280;66057;54.718;18.426;2023-06-22T04:03:49;101565.28;;;18.21;100.00
77106;BME280;66057;54.718;18.426;2023-06-22T04:06:15;101567.13;;;18.25;100.00
77106;BME280;66057;54.718;18.426;2023-06-22T04:08:40;101565.34;;;18.24;100.00
77106;BME280;66057;54.718;18.426;2023-06-22T04:11:06;101565.41;;;18.27;100.00
77106;BME280;66057;54.718;18.426;2023-06-22T04:13:32;101574.00;;;18.23;100.00
77106;BME280;66057;54.718;18.426;2023-06-22T04:15:58;101571.28;;;18.19;100.00
77106;BME280;66057;54.718;18.426;2023-06-22T04:18:23;101563.72;;;18.29;100.00
77106;BME280;66057;54.718;18.426;2023-06-22T04:20:49;101563.59;;;18.23;100.00
77106;BME280;66057;54.718;18.426;2023-06-22T04:23:15;101557.50;;;18.23;100.00
77106;BME280;66057;54.718;18.426;2023-06-22T04:25:41;101556.50;;;18.16;100.00
77106;BME280;66057;54.718;18.426;2023-06-22T04:28:06;101564.31;;;18.16;100.00
77106;BME280;66057;54.718;18.426;2023-06-22T04:30:38;101560.63;;;18.08;100.00
77106;BME280;66057;54.718;18.426;2023-06-22T04:33:15;101562.59;;;18.17;100.00
77106;BME280;66057;54.718;18.426;2023-06-22T04:35:42;101564.38;;;18.19;100.00
77106;BME280;66057;54.718;18.426;2023-06-22T04:38:12;101561.88;;;18.24;100.00
77106;BME280;66057;54.718;18.426;2023-06-22T04:40:39;101566.19;;;18.22;100.00
77106;BME280;66057;54.718;18.426;2023-06-22T04:43:05;101569.63;;;18.21;100.00
77106;BME280;66057;54.718;18.426;2023-06-22T04:45:32;101569.63;;;18.22;100.00
77106;BME280;66057;54.718;18.426;2023-06-22T04:47:58;101572.47;;;18.32;100.00
77106;BME280;66057;54.718;18.426;2023-06-22T04:50:24;101570.84;;;18.38;100.00
77106;BME280;66057;54.718;18.426;2023-06-22T04:52:50;101577.78;;;18.38;100.00
77106;BME280;66057;54.718;18.426;2023-06-22T04:55:16;101575.28;;;18.41;100.00
77106;BME280;66057;54.718;18.426;2023-06-22T04:57:44;101580.50;;;18.42;100.00
77106;BME280;66057;54.718;18.426;2023-06-22T05:00:18;101578.88;;;18.47;100.00
77106;BME280;66057;54.718;18.426;2023-06-22T05:02:45;101578.25;;;18.56;100.00
77106;BME280;66057;54.718;18.426;2023-06-22T05:05:13;101575.84;;;18.65;99.95
77106;BME280;66057;54.718;18.426;2023-06-22T05:07:43;101584.72;;;18.76;98.82
77106;BME280;66057;54.718;18.426;2023-06-22T05:10:10;101580.31;;;18.72;99.05
77106;BME280;66057;54.718;18.426;2023-06-22T05:12:38;101568.25;;;18.77;97.76
77106;BME280;66057;54.718;18.426;2023-06-22T05:15:05;101570.75;;;18.72;98.53
77106;BME280;66057;54.718;18.426;2023-06-22T05:17:31;101569.31;;;18.87;97.68
77106;BME280;66057;54.718;18.426;2023-06-22T05:19:57;101572.72;;;18.83;97.29
77106;BME280;66057;54.718;18.426;2023-06-22T05:22:22;101557.25;;;18.92;97.00
77106;BME280;66057;54.718;18.426;2023-06-22T05:24:48;101563.34;;;18.92;96.15
77106;BME280;66057;54.718;18.426;2023-06-22T05:27:14;101569.56;;;18.99;95.73
77106;BME280;66057;54.718;18.426;2023-06-22T05:29:40;101569.53;;;18.97;95.44
77106;BME280;66057;54.718;18.426;2023-06-22T05:32:06;101573.03;;;18.98;95.74
77106;BME280;66057;54.718;18.426;2023-06-22T05:34:32;101573.97;;;19.01;95.07
77106;BME280;66057;54.718;18.426;2023-06-22T05:36:58;101560.88;;;19.00;94.75
77106;BME280;66057;54.718;18.426;2023-06-22T05:39:26;101564.19;;;18.91;94.86
77106;BME280;66057;54.718;18.426;2023-06-22T05:41:52;101570.38;;;18.96;94.57
77106;BME280;66057;54.718;18.426;2023-06-22T05:44:19;101580.00;;;19.00;95.43
77106;BME280;66057;54.718;18.426;2023-06-22T05:46:45;101575.88;;;19.11;94.66
77106;BME280;66057;54.718;18.426;2023-06-22T05:49:15;101575.88;;;19.11;94.37
77106;BME280;66057;54.718;18.426;2023-06-22T05:51:41;101594.19;;;19.14;93.30
77106;BME280;66057;54.718;18.426;2023-06-22T05:54:07;101582.75;;;19.06;93.94
77106;BME280;66057;54.718;18.426;2023-06-22T05:56:34;101584.56;;;19.10;93.99
77106;BME280;66057;54.718;18.426;2023-06-22T05:59:00;101576.66;;;19.06;93.56
77106;BME280;66057;54.718;18.426;2023-06-22T06:01:26;101578.75;;;19.25;93.96
77106;BME280;66057;54.718;18.426;2023-06-22T06:03:52;101596.13;;;19.23;94.15
77106;BME280;66057;54.718;18.426;2023-06-22T06:06:18;101592.75;;;19.30;93.44
77106;BME280;66057;54.718;18.426;2023-06-22T06:08:46;101590.06;;;19.26;93.31
77106;BME280;66057;54.718;18.426;2023-06-22T06:11:12;101591.00;;;19.29;93.95
77106;BME280;66057;54.718;18.426;2023-06-22T06:13:38;101584.13;;;19.34;93.22
77106;BME280;66057;54.718;18.426;2023-06-22T06:16:03;101599.66;;;19.28;94.12
77106;BME280;66057;54.718;18.426;2023-06-22T06:18:29;101606.66;;;19.31;93.74
77106;BME280;66057;54.718;18.426;2023-06-22T06:20:55;101593.75;;;19.37;92.78
77106;BME280;66057;54.718;18.426;2023-06-22T06:23:21;101597.22;;;19.36;93.21
77106;BME280;66057;54.718;18.426;2023-06-22T06:25:47;101603.63;;;19.51;93.24
77106;BME280;66057;54.718;18.426;2023-06-22T06:28:12;101616.66;;;19.53;92.72
77106;BME280;66057;54.718;18.426;2023-06-22T06:30:38;101585.97;;;19.40;93.06
77106;BME280;66057;54.718;18.426;2023-06-22T06:33:04;101601.78;;;19.46;92.78
77106;BME280;66057;54.718;18.426;2023-06-22T06:35:34;101599.34;;;19.55;91.84
77106;BME280;66057;54.718;18.426;2023-06-22T06:38:00;101600.75;;;19.39;92.25
77106;BME280;66057;54.718;18.426;2023-06-22T06:40:25;101592.63;;;19.23;92.44
77106;BME280;66057;54.718;18.426;2023-06-22T06:42:51;101630.94;;;19.27;92.96
77106;BME280;66057;54.718;18.426;2023-06-22T06:45:20;101616.13;;;19.26;93.33
77106;BME280;66057;54.718;18.426;2023-06-22T06:47:49;101618.28;;;19.45;93.76
77106;BME280;66057;54.718;18.426;2023-06-22T06:50:15;101619.06;;;19.42;92.34
77106;BME280;66057;54.718;18.426;2023-06-22T06:52:41;101639.59;;;19.26;92.10
77106;BME280;66057;54.718;18.426;2023-06-22T06:55:07;101607.69;;;19.37;91.07
77106;BME280;66057;54.718;18.426;2023-06-22T06:57:36;101613.81;;;19.41;90.51
77106;BME280;66057;54.718;18.426;2023-06-22T07:00:04;101622.44;;;19.38;90.87
77106;BME280;66057;54.718;18.426;2023-06-22T07:02:35;101625.94;;;19.39;90.42
77106;BME280;66057;54.718;18.426;2023-06-22T07:05:01;101622.66;;;19.46;90.50
77106;BME280;66057;54.718;18.426;2023-06-22T07:07:44;101628.78;;;19.49;90.00
77106;BME280;66057;54.718;18.426;2023-06-22T07:10:11;101634.69;;;19.41;89.79
77106;BME280;66057;54.718;18.426;2023-06-22T07:12:36;101624.41;;;19.47;90.03
77106;BME280;66057;54.718;18.426;2023-06-22T07:15:04;101630.59;;;19.53;89.50
77106;BME280;66057;54.718;18.426;2023-06-22T07:17:31;101632.28;;;19.50;90.41
77106;BME280;66057;54.718;18.426;2023-06-22T07:19:57;101631.88;;;19.75;90.27
77106;BME280;66057;54.718;18.426;2023-06-22T07:22:22;101630.03;;;19.71;89.37
77106;BME280;66057;54.718;18.426;2023-06-22T07:24:48;101625.97;;;19.85;89.08
77106;BME280;66057;54.718;18.426;2023-06-22T07:27:15;101632.03;;;19.86;88.69
77106;BME280;66057;54.718;18.426;2023-06-22T07:29:44;101645.22;;;19.93;87.88
77106;BME280;66057;54.718;18.426;2023-06-22T07:32:10;101648.88;;;20.03;86.45
77106;BME280;66057;54.718;18.426;2023-06-22T07:34:36;101641.03;;;20.03;87.27
77106;BME280;66057;54.718;18.426;2023-06-22T07:37:01;101628.19;;;20.17;87.73
77106;BME280;66057;54.718;18.426;2023-06-22T07:39:28;101640.34;;;20.15;86.13
77106;BME280;66057;54.718;18.426;2023-06-22T07:41:53;101657.44;;;19.94;85.80
77106;BME280;66057;54.718;18.426;2023-06-22T07:44:19;101653.03;;;19.92;86.29
77106;BME280;66057;54.718;18.426;2023-06-22T07:46:45;101672.84;;;19.82;85.65
77106;BME280;66057;54.718;18.426;2023-06-22T07:49:11;101663.91;;;19.68;87.04
77106;BME280;66057;54.718;18.426;2023-06-22T07:51:37;101662.25;;;19.73;86.02
77106;BME280;66057;54.718;18.426;2023-06-22T07:54:03;101664.06;;;19.77;85.53
77106;BME280;66057;54.718;18.426;2023-06-22T07:56:29;101664.94;;;19.78;86.43
77106;BME280;66057;54.718;18.426;2023-06-22T07:58:55;101636.44;;;19.88;86.20
77106;BME280;66057;54.718;18.426;2023-06-22T08:01:23;101646.75;;;19.82;86.59
77106;BME280;66057;54.718;18.426;2023-06-22T08:03:49;101653.94;;;19.95;85.94
77106;BME280;66057;54.718;18.426;2023-06-22T08:06:15;101661.84;;;19.98;85.62
77106;BME280;66057;54.718;18.426;2023-06-22T08:08:42;101653.31;;;20.10;85.71
77106;BME280;66057;54.718;18.426;2023-06-22T08:11:08;101659.50;;;20.14;85.25
77106;BME280;66057;54.718;18.426;2023-06-22T08:13:35;101650.16;;;20.29;86.27
77106;BME280;66057;54.718;18.426;2023-06-22T08:16:00;101666.22;;;20.54;84.99
77106;BME280;66057;54.718;18.426;2023-06-22T08:18:26;101647.09;;;20.55;84.43
77106;BME280;66057;54.718;18.426;2023-06-22T08:20:52;101669.84;;;20.62;83.86
77106;BME280;66057;54.718;18.426;2023-06-22T08:23:18;101658.66;;;20.72;84.41
77106;BME280;66057;54.718;18.426;2023-06-22T08:25:43;101670.09;;;20.81;82.76
77106;BME280;66057;54.718;18.426;2023-06-22T08:28:09;101664.31;;;21.04;82.61
77106;BME280;66057;54.718;18.426;2023-06-22T08:30:35;101672.97;;;21.00;82.20
77106;BME280;66057;54.718;18.426;2023-06-22T08:33:01;101661.34;;;20.78;83.22
77106;BME280;66057;54.718;18.426;2023-06-22T08:35:26;101664.97;;;20.86;82.13
77106;BME280;66057;54.718;18.426;2023-06-22T08:37:52;101672.59;;;20.71;82.78
77106;BME280;66057;54.718;18.426;2023-06-22T08:40:20;101660.75;;;20.99;82.66
77106;BME280;66057;54.718;18.426;2023-06-22T08:42:47;101666.94;;;21.07;81.90
77106;BME280;66057;54.718;18.426;2023-06-22T08:45:13;101686.88;;;20.96;81.56
77106;BME280;66057;54.718;18.426;2023-06-22T08:47:40;101681.66;;;20.99;82.97
77106;BME280;66057;54.718;18.426;2023-06-22T08:50:07;101677.41;;;21.05;82.05
77106;BME280;66057;54.718;18.426;2023-06-22T08:52:36;101672.38;;;21.20;82.03
77106;BME280;66057;54.718;18.426;2023-06-22T08:55:02;101665.56;;;21.35;82.23
77106;BME280;66057;54.718;18.426;2023-06-22T08:57:28;101673.09;;;21.09;82.55
77106;BME280;66057;54.718;18.426;2023-06-22T08:59:54;101679.16;;;21.08;83.12
77106;BME280;66057;54.718;18.426;2023-06-22T09:02:27;101674.84;;;21.10;82.80
77106;BME280;66057;54.718;18.426;2023-06-22T09:04:57;101673.38;;;21.31;81.99
77106;BME280;66057;54.718;18.426;2023-06-22T09:07:24;101658.53;;;21.27;82.47
77106;BME280;66057;54.718;18.426;2023-06-22T09:09:50;101663.66;;;21.18;82.34
77106;BME280;66057;54.718;18.426;2023-06-22T09:12:17;101672.09;;;20.99;83.37
77106;BME280;66057;54.718;18.426;2023-06-22T09:14:45;101654.72;;;21.06;82.78
77106;BME280;66057;54.718;18.426;2023-06-22T09:17:12;101663.63;;;21.17;83.90
77106;BME280;66057;54.718;18.426;2023-06-22T09:19:38;101664.59;;;21.25;82.45
77106;BME280;66057;54.718;18.426;2023-06-22T09:22:04;101666.41;;;21.29;81.05
77106;BME280;66057;54.718;18.426;2023-06-22T09:24:31;101661.09;;;21.23;82.92
77106;BME280;66057;54.718;18.426;2023-06-22T09:26:58;101654.94;;;21.18;82.26
77106;BME280;66057;54.718;18.426;2023-06-22T09:29:24;101661.22;;;21.35;82.35
77106;BME280;66057;54.718;18.426;2023-06-22T09:31:49;101657.84;;;21.45;82.47
77106;BME280;66057;54.718;18.426;2023-06-22T09:34:17;101653.69;;;21.62;82.00
77106;BME280;66057;54.718;18.426;2023-06-22T09:36:46;101658.47;;;22.06;79.50
77106;BME280;66057;54.718;18.426;2023-06-22T09:39:12;101668.66;;;21.80;78.23
77106;BME280;66057;54.718;18.426;2023-06-22T09:41:37;101657.94;;;21.54;79.10
77106;BME280;66057;54.718;18.426;2023-06-22T09:44:04;101657.84;;;21.45;79.27
77106;BME280;66057;54.718;18.426;2023-06-22T09:46:30;101647.38;;;21.45;79.17
77106;BME280;66057;54.718;18.426;2023-06-22T09:48:55;101662.19;;;21.43;77.98
77106;BME280;66057;54.718;18.426;2023-06-22T09:51:22;101650.75;;;21.35;79.26
77106;BME280;66057;54.718;18.426;2023-06-22T09:53:49;101643.13;;;21.55;78.89
77106;BME280;66057;54.718;18.426;2023-06-22T09:56:15;101657.31;;;21.80;78.74
77106;BME280;66057;54.718;18.426;2023-06-22T09:58:45;101649.56;;;21.90;77.01
77106;BME280;66057;54.718;18.426;2023-06-22T10:01:12;101640.94;;;21.96;77.22
77106;BME280;66057;54.718;18.426;2023-06-22T10:03:40;101669.91;;;22.15;74.69
77106;BME280;66057;54.718;18.426;2023-06-22T10:06:07;101656.81;;;22.15;73.38
77106;BME280;66057;54.718;18.426;2023-06-22T10:08:33;101652.44;;;22.17;73.87
77106;BME280;66057;54.718;18.426;2023-06-22T10:10:58;101653.38;;;22.24;73.38
77106;BME280;66057;54.718;18.426;2023-06-22T10:15:50;101640.44;;;22.54;71.67
77106;BME280;66057;54.718;18.426;2023-06-22T10:18:20;101643.00;;;22.39;72.03
77106;BME280;66057;54.718;18.426;2023-06-22T10:20:52;101651.72;;;22.37;72.70
77106;BME280;66057;54.718;18.426;2023-06-22T10:23:18;101656.09;;;22.38;73.61
77106;BME280;66057;54.718;18.426;2023-06-22T10:25:45;101656.28;;;22.68;74.34
77106;BME280;66057;54.718;18.426;2023-06-22T10:28:10;101651.03;;;22.70;71.31
77106;BME280;66057;54.718;18.426;2023-06-22T10:30:36;101647.59;;;22.72;69.79
77106;BME280;66057;54.718;18.426;2023-06-22T10:33:02;101660.59;;;22.61;65.77
77106;BME280;66057;54.718;18.426;2023-06-22T10:35:28;101660.69;;;22.74;71.69
77106;BME280;66057;54.718;18.426;2023-06-22T10:37:54;101666.81;;;22.71;73.32
77106;BME280;66057;54.718;18.426;2023-06-22T10:40:21;101672.16;;;22.89;71.10
77106;BME280;66057;54.718;18.426;2023-06-22T10:42:46;101661.63;;;22.85;69.76
77106;BME280;66057;54.718;18.426;2023-06-22T10:45:12;101658.97;;;22.79;69.97
77106;BME280;66057;54.718;18.426;2023-06-22T10:47:39;101659.91;;;22.90;68.97
77106;BME280;66057;54.718;18.426;2023-06-22T10:50:05;101661.56;;;22.74;68.49
77106;BME280;66057;54.718;18.426;2023-06-22T10:52:31;101668.59;;;22.80;67.90
77106;BME280;66057;54.718;18.426;2023-06-22T10:54:57;101666.03;;;22.86;69.45
77106;BME280;66057;54.718;18.426;2023-06-22T10:57:23;101662.59;;;23.03;66.73
77106;BME280;66057;54.718;18.426;2023-06-22T10:59:49;101659.13;;;23.09;64.34
77106;BME280;66057;54.718;18.426;2023-06-22T11:02:14;101664.38;;;23.17;62.67
77106;BME280;66057;54.718;18.426;2023-06-22T11:04:40;101671.38;;;23.13;66.44
77106;BME280;66057;54.718;18.426;2023-06-22T11:07:05;101667.00;;;23.12;65.29
77106;BME280;66057;54.718;18.426;2023-06-22T11:09:31;101644.25;;;23.02;65.61
77106;BME280;66057;54.718;18.426;2023-06-22T11:11:57;101645.16;;;23.10;64.05
77106;BME280;66057;54.718;18.426;2023-06-22T11:14:25;101659.91;;;22.85;63.66
77106;BME280;66057;54.718;18.426;2023-06-22T11:16:51;101659.06;;;22.94;63.54
77106;BME280;66057;54.718;18.426;2023-06-22T11:19:18;101659.94;;;22.96;64.21
77106;BME280;66057;54.718;18.426;2023-06-22T11:21:43;101642.47;;;22.95;64.18
77106;BME280;66057;54.718;18.426;2023-06-22T11:24:09;101642.47;;;22.95;61.58
77106;BME280;66057;54.718;18.426;2023-06-22T11:26:35;101644.16;;;22.85;62.22
77106;BME280;66057;54.718;18.426;2023-06-22T11:29:01;101653.84;;;23.00;62.32
77106;BME280;66057;54.718;18.426;2023-06-22T11:31:30;101640.75;;;23.01;60.69
77106;BME280;66057;54.718;18.426;2023-06-22T11:33:56;101652.97;;;22.96;60.72
77106;BME280;66057;54.718;18.426;2023-06-22T11:36:21;101647.69;;;22.92;63.49
77106;BME280;66057;54.718;18.426;2023-06-22T11:38:47;101661.75;;;23.12;62.76
77106;BME280;66057;54.718;18.426;2023-06-22T11:41:13;101649.56;;;23.26;61.77
77106;BME280;66057;54.718;18.426;2023-06-22T11:43:39;101659.13;;;23.14;61.59
77106;BME280;66057;54.718;18.426;2023-06-22T11:46:04;101649.53;;;23.17;61.86
77106;BME280;66057;54.718;18.426;2023-06-22T11:48:30;101647.84;;;23.42;61.52
77106;BME280;66057;54.718;18.426;2023-06-22T11:50:55;101662.81;;;23.70;60.64
77106;BME280;66057;54.718;18.426;2023-06-22T11:53:24;101658.50;;;24.19;59.04
77106;BME280;66057;54.718;18.426;2023-06-22T11:55:50;101640.03;;;24.65;55.77
77106;BME280;66057;54.718;18.426;2023-06-22T11:58:16;101633.09;;;24.18;55.50
77106;BME280;66057;54.718;18.426;2023-06-22T12:00:42;101644.44;;;24.55;54.41
77106;BME280;66057;54.718;18.426;2023-06-22T12:03:07;101635.50;;;25.11;51.93
77106;BME280;66057;54.718;18.426;2023-06-22T12:05:33;101624.16;;;24.80;51.97
77106;BME280;66057;54.718;18.426;2023-06-22T12:07:59;101627.53;;;25.18;50.62
77106;BME280;66057;54.718;18.426;2023-06-22T12:10:25;101637.25;;;25.06;50.46
77106;BME280;66057;54.718;18.426;2023-06-22T12:12:51;101636.13;;;25.60;47.88
77106;BME280;66057;54.718;18.426;2023-06-22T12:15:17;101651.72;;;25.87;47.04
77106;BME280;66057;54.718;18.426;2023-06-22T12:17:42;101644.63;;;25.92;45.41
77106;BME280;66057;54.718;18.426;2023-06-22T12:20:08;101649.31;;;25.55;45.73
77106;BME280;66057;54.718;18.426;2023-06-22T12:22:35;101647.53;;;25.57;44.58
77106;BME280;66057;54.718;18.426;2023-06-22T12:25:01;101650.22;;;25.45;42.56
77106;BME280;66057;54.718;18.426;2023-06-22T12:27:27;101680.03;;;25.50;44.27
77106;BME280;66057;54.718;18.426;2023-06-22T12:29:52;101645.88;;;25.34;45.87
77106;BME280;66057;54.718;18.426;2023-06-22T12:32:18;101629.94;;;25.66;46.96
77106;BME280;66057;54.718;18.426;2023-06-22T12:34:44;101634.28;;;25.68;45.73
77106;BME280;66057;54.718;18.426;2023-06-22T12:37:10;101634.25;;;25.73;45.95
77106;BME280;66057;54.718;18.426;2023-06-22T12:39:36;101650.06;;;25.71;47.61
77106;BME280;66057;54.718;18.426;2023-06-22T12:42:02;101638.94;;;25.22;49.63
77106;BME280;66057;54.718;18.426;2023-06-22T12:44:27;101640.41;;;25.72;48.94